Time;durP1;ratioP1;P1;durP2;ratioP2;P2;SDS_P1;SDS_P2;PMS_P1;PMS_P2;Temp;Humidity;BMP_temperature;BMP_pressure;BME280_temperature;BME280_humidity;BME280_pressure;Samples;Min_cycle;Max_cycle;Signal;HPM_P1;HPM_P2
2022/10/15 00:00:45;;;;;;;8.73;7.70;;;;;18.00;100566.00;;;;5087375;28;20205;-76
2022/10/15 00:03:12;;;;;;;10.60;7.65;;;;;17.90;100560.00;;;;5087774;28;20210;-76
2022/10/15 00:05:41;;;;;;;9.93;7.95;;;;;17.90;100556.00;;;;5086693;28;20581;-76
2022/10/15 00:08:10;;;;;;;9.70;8.30;;;;;17.90;100559.00;;;;5084041;28;20643;-76
2022/10/15 00:10:38;;;;;;;10.85;7.30;;;;;18.00;100554.00;;;;5079309;28;20198;-76
2022/10/15 00:13:06;;;;;;;12.27;8.82;;;;;18.00;100554.00;;;;5082283;28;20195;-76
2022/10/15 00:15:36;;;;;;;9.30;7.63;;;;;18.00;100557.00;;;;5087811;28;20213;-76
2022/10/15 00:18:03;;;;;;;9.75;7.72;;;;;18.00;100547.00;;;;5087239;28;20209;-76
2022/10/15 00:20:31;;;;;;;10.10;8.27;;;;;18.00;100542.00;;;;5087898;28;20191;-76
2022/10/15 00:23:00;;;;;;;11.90;8.95;;;;;18.00;100549.00;;;;5086757;28;20234;-76
2022/10/15 00:25:27;;;;;;;11.48;8.68;;;;;18.00;100543.00;;;;5087316;28;20292;-76
2022/10/15 00:27:54;;;;;;;9.77;7.88;;;;;18.00;100553.00;;;;5076315;28;20218;-76
2022/10/15 00:30:21;;;;;;;10.27;8.10;;;;;18.00;100549.00;;;;5079802;28;20226;-76
2022/10/15 00:32:48;;;;;;;14.25;9.57;;;;;18.00;100546.00;;;;5088068;28;20209;-76
2022/10/15 00:35:16;;;;;;;10.88;9.00;;;;;18.00;100538.00;;;;5071273;28;20207;-76
2022/10/15 00:37:44;;;;;;;11.40;8.68;;;;;18.00;100540.00;;;;5081305;28;20210;-76
2022/10/15 00:40:14;;;;;;;10.73;8.32;;;;;18.00;100547.00;;;;5084436;28;20198;-76
2022/10/15 00:42:42;;;;;;;12.70;8.50;;;;;18.10;100541.00;;;;5082062;28;20195;-76
2022/10/15 00:45:13;;;;;;;11.27;8.38;;;;;18.10;100546.00;;;;5086607;28;20206;-76
2022/10/15 00:47:44;;;;;;;10.95;8.60;;;;;18.10;100553.00;;;;5084455;28;20226;-76
2022/10/15 00:50:14;;;;;;;9.73;8.50;;;;;18.10;100545.00;;;;5084499;28;20198;-76
2022/10/15 00:52:47;;;;;;;9.23;7.68;;;;;18.10;100544.00;;;;5075470;28;20469;-76
2022/10/15 00:55:21;;;;;;;11.93;8.38;;;;;18.10;100543.00;;;;5082342;28;20206;-76
2022/10/15 00:57:50;;;;;;;11.02;7.95;;;;;18.10;100545.00;;;;5082556;28;20205;-76
2022/10/15 01:00:19;;;;;;;10.93;9.07;;;;;18.10;100546.00;;;;5086752;28;20194;-76
2022/10/15 01:02:47;;;;;;;11.25;8.50;;;;;18.20;100541.00;;;;5090005;28;20194;-76
2022/10/15 01:05:16;;;;;;;9.35;8.38;;;;;18.10;100542.00;;;;5089236;28;20205;-76
2022/10/15 01:07:44;;;;;;;11.93;7.95;;;;;18.20;100547.00;;;;5091007;28;20230;-76
2022/10/15 01:10:12;;;;;;;10.65;8.40;;;;;18.20;100544.00;;;;5090561;28;20205;-76
2022/10/15 01:13:00;;;;;;;10.43;9.32;;;;;18.10;100539.00;;;;5090220;28;20202;-76
2022/10/15 01:15:33;;;;;;;10.23;8.80;;;;;18.20;100544.00;;;;5070661;28;20199;-76
2022/10/15 01:18:08;;;;;;;10.93;9.02;;;;;18.20;100539.00;;;;5070977;28;20210;-76
2022/10/15 01:20:52;;;;;;;10.23;8.45;;;;;18.10;100531.00;;;;5084721;28;20213;-76
2022/10/15 01:23:47;;;;;;;11.25;8.20;;;;;18.10;100532.00;;;;5083428;28;20194;-76
2022/10/15 01:26:42;;;;;;;11.50;8.32;;;;;18.10;100522.00;;;;5090376;28;20221;-76
2022/10/15 01:29:22;;;;;;;9.23;7.70;;;;;18.10;100522.00;;;;5089272;28;20238;-76
2022/10/15 01:32:00;;;;;;;11.77;8.48;;;;;18.20;100522.00;;;;5090193;28;20675;-76
2022/10/15 01:34:39;;;;;;;10.07;8.60;;;;;18.10;100519.00;;;;5087597;28;20665;-76
2022/10/15 01:37:12;;;;;;;9.35;7.50;;;;;18.20;100518.00;;;;5089371;28;20187;-76
2022/10/15 01:39:45;;;;;;;12.43;8.85;;;;;18.20;100517.00;;;;5079694;28;20195;-76
2022/10/15 01:42:16;;;;;;;14.75;8.75;;;;;18.20;100517.00;;;;5089111;28;20280;-76
2022/10/15 01:44:49;;;;;;;11.48;8.73;;;;;18.20;100518.00;;;;5088811;28;20202;-76
2022/10/15 01:47:23;;;;;;;11.45;8.85;;;;;18.20;100517.00;;;;5089764;28;20218;-76
2022/10/15 01:49:53;;;;;;;11.05;8.82;;;;;18.20;100515.00;;;;5089378;28;20205;-76
2022/10/15 01:52:27;;;;;;;10.85;8.82;;;;;18.20;100509.00;;;;5089627;28;20201;-76
2022/10/15 01:54:55;;;;;;;11.70;9.18;;;;;18.20;100502.00;;;;5086252;28;20202;-76
2022/10/15 01:57:25;;;;;;;12.82;9.50;;;;;18.10;100500.00;;;;5082741;28;20210;-76
2022/10/15 01:59:53;;;;;;;11.48;8.48;;;;;18.20;100506.00;;;;5090185;28;20685;-76
2022/10/15 02:02:21;;;;;;;13.07;9.40;;;;;18.10;100502.00;;;;5084409;28;20206;-76
2022/10/15 02:04:49;;;;;;;11.60;8.73;;;;;18.10;100500.00;;;;5084586;28;20206;-76
2022/10/15 02:07:23;;;;;;;11.35;8.57;;;;;18.10;100499.00;;;;5074704;28;20445;-76
2022/10/15 02:09:56;;;;;;;11.07;9.85;;;;;18.10;100492.00;;;;5089644;28;20210;-76
2022/10/15 02:12:36;;;;;;;11.15;8.77;;;;;18.10;100488.00;;;;5086363;28;20206;-76
2022/10/15 02:15:10;;;;;;;8.68;7.28;;;;;18.10;100488.00;;;;5088495;28;20209;-76
2022/10/15 02:17:42;;;;;;;10.18;8.10;;;;;18.10;100484.00;;;;5085817;28;20194;-76
2022/10/15 02:20:15;;;;;;;12.93;9.32;;;;;18.10;100484.00;;;;5072628;28;20218;-76
2022/10/15 02:22:49;;;;;;;12.55;9.50;;;;;18.00;100485.00;;;;5069843;28;20215;-76
2022/10/15 02:25:19;;;;;;;11.82;8.77;;;;;18.10;100483.00;;;;5087494;28;20820;-75
2022/10/15 02:27:50;;;;;;;12.13;8.60;;;;;18.10;100474.00;;;;5089063;28;20225;-76
2022/10/15 02:30:18;;;;;;;17.83;9.82;;;;;18.10;100477.00;;;;5082304;28;20217;-76
2022/10/15 02:32:57;;;;;;;14.30;9.95;;;;;18.00;100472.00;;;;5089995;28;20198;-76
2022/10/15 02:35:26;;;;;;;11.55;9.05;;;;;18.00;100469.00;;;;5069074;28;20665;-76
2022/10/15 02:37:55;;;;;;;12.48;8.40;;;;;18.00;100466.00;;;;5068947;28;20206;-76
2022/10/15 02:40:27;;;;;;;9.90;8.35;;;;;18.00;100461.00;;;;5071848;28;20650;-76
2022/10/15 02:42:55;;;;;;;10.77;9.13;;;;;18.00;100453.00;;;;5088692;28;20233;-76
2022/10/15 02:45:22;;;;;;;13.95;10.63;;;;;18.00;100449.00;;;;5089552;28;20209;-76
2022/10/15 02:47:51;;;;;;;10.57;9.40;;;;;18.00;100451.00;;;;5078983;28;20222;-76
2022/10/15 02:50:18;;;;;;;13.90;9.73;;;;;18.00;100448.00;;;;5080508;28;20190;-76
2022/10/15 02:52:45;;;;;;;15.50;10.10;;;;;18.10;100447.00;;;;5089208;28;20206;-76
2022/10/15 02:55:13;;;;;;;14.00;9.95;;;;;18.00;100443.00;;;;5085403;28;20198;-76
2022/10/15 02:57:40;;;;;;;13.38;9.43;;;;;18.00;100440.00;;;;5088089;28;20210;-76
2022/10/15 03:00:08;;;;;;;12.52;9.73;;;;;18.00;100433.00;;;;5088141;28;20201;-76
2022/10/15 03:02:36;;;;;;;11.68;8.63;;;;;18.00;100434.00;;;;5084615;28;20206;-76
2022/10/15 03:05:05;;;;;;;12.93;9.55;;;;;18.00;100424.00;;;;5079670;28;20202;-76
2022/10/15 03:07:32;;;;;;;15.00;10.48;;;;;18.00;100424.00;;;;5079285;28;20684;-76
2022/10/15 03:09:59;;;;;;;12.43;10.10;;;;;18.00;100418.00;;;;5080531;28;20194;-76
2022/10/15 03:12:26;;;;;;;14.57;10.40;;;;;18.00;100419.00;;;;5076112;28;20194;-76
2022/10/15 03:14:54;;;;;;;13.07;9.77;;;;;18.00;100429.00;;;;5073292;28;20202;-76
2022/10/15 03:17:21;;;;;;;14.98;10.15;;;;;18.00;100419.00;;;;5073412;28;20568;-76
2022/10/15 03:19:48;;;;;;;15.52;11.07;;;;;18.00;100421.00;;;;5072789;28;20656;-77
2022/10/15 03:22:17;;;;;;;12.93;10.05;;;;;18.00;100417.00;;;;5077589;28;20222;-77
2022/10/15 03:24:44;;;;;;;12.68;9.38;;;;;18.00;100411.00;;;;5073252;28;20688;-77
2022/10/15 03:27:12;;;;;;;13.57;9.25;;;;;18.00;100418.00;;;;5079452;28;20214;-77
2022/10/15 03:29:39;;;;;;;13.77;10.27;;;;;18.00;100412.00;;;;5077563;28;20230;-77
2022/10/15 03:32:06;;;;;;;13.02;9.77;;;;;17.90;100420.00;;;;5076600;28;20206;-77
2022/10/15 03:34:34;;;;;;;11.75;8.93;;;;;17.90;100412.00;;;;5077388;28;20194;-77
2022/10/15 03:37:01;;;;;;;12.88;9.93;;;;;17.90;100418.00;;;;5078709;28;20222;-77
2022/10/15 03:39:29;;;;;;;13.80;9.80;;;;;17.90;100414.00;;;;5084300;28;20205;-77
2022/10/15 03:41:57;;;;;;;13.30;9.40;;;;;17.90;100414.00;;;;5086819;28;20201;-77
2022/10/15 03:44:24;;;;;;;12.75;10.05;;;;;17.80;100411.00;;;;5087545;28;20296;-77
2022/10/15 03:46:51;;;;;;;10.90;8.95;;;;;17.80;100409.00;;;;5087191;28;20198;-77
2022/10/15 03:49:18;;;;;;;13.65;10.70;;;;;17.80;100410.00;;;;5086332;28;20280;-77
2022/10/15 03:51:46;;;;;;;13.68;9.85;;;;;17.80;100419.00;;;;5081867;28;20205;-77
2022/10/15 03:54:13;;;;;;;13.38;9.68;;;;;17.80;100421.00;;;;5081856;28;20311;-77
2022/10/15 03:56:42;;;;;;;12.43;9.30;;;;;17.80;100421.00;;;;5071739;28;20711;-77
2022/10/15 03:59:09;;;;;;;15.15;10.77;;;;;17.80;100419.00;;;;5079906;28;20204;-77
2022/10/15 04:01:36;;;;;;;13.00;9.88;;;;;17.70;100419.00;;;;5086985;28;20194;-77
2022/10/15 04:04:03;;;;;;;12.88;9.75;;;;;17.70;100422.00;;;;5077475;28;20658;-77
2022/10/15 04:06:33;;;;;;;14.82;10.57;;;;;17.70;100418.00;;;;5088582;28;20225;-77
2022/10/15 04:09:00;;;;;;;14.00;10.35;;;;;17.70;100420.00;;;;5079660;28;20227;-77
2022/10/15 04:11:27;;;;;;;13.60;10.80;;;;;17.70;100428.00;;;;5074289;28;20194;-77
2022/10/15 04:13:56;;;;;;;13.05;10.02;;;;;17.70;100423.00;;;;5083561;28;20213;-77
2022/10/15 04:16:23;;;;;;;14.55;10.30;;;;;17.70;100433.00;;;;5067895;28;20446;-77
2022/10/15 04:18:50;;;;;;;10.32;9.00;;;;;17.70;100435.00;;;;5081550;28;20194;-77
2022/10/15 04:21:18;;;;;;;14.18;10.38;;;;;17.60;100433.00;;;;5086834;28;20606;-77
2022/10/15 04:23:45;;;;;;;13.80;9.70;;;;;17.60;100428.00;;;;5088100;28;20688;-77
2022/10/15 04:26:12;;;;;;;14.27;10.60;;;;;17.60;100433.00;;;;5087755;28;20698;-77
2022/10/15 04:28:39;;;;;;;12.52;9.38;;;;;17.60;100437.00;;;;5085145;28;20226;-77
2022/10/15 04:31:08;;;;;;;12.75;9.52;;;;;17.60;100435.00;;;;5085285;28;20205;-77
2022/10/15 04:33:36;;;;;;;12.27;10.52;;;;;17.60;100438.00;;;;5087584;28;20206;-77
2022/10/15 04:36:05;;;;;;;12.88;9.50;;;;;17.60;100448.00;;;;5085788;28;20194;-77
2022/10/15 04:38:33;;;;;;;12.68;9.30;;;;;17.60;100446.00;;;;5090147;28;20651;-77
2022/10/15 04:41:02;;;;;;;13.60;9.93;;;;;17.60;100455.00;;;;5087752;28;20202;-77
2022/10/15 04:43:30;;;;;;;12.25;9.02;;;;;17.60;100447.00;;;;5086842;28;20202;-77
2022/10/15 04:45:58;;;;;;;15.07;9.32;;;;;17.60;100451.00;;;;5080727;28;20195;-77
2022/10/15 04:48:29;;;;;;;15.93;10.65;;;;;17.60;100452.00;;;;5090869;28;20229;-77
2022/10/15 04:51:02;;;;;;;15.70;11.02;;;;;17.60;100444.00;;;;5091956;28;20187;-77
2022/10/15 04:53:31;;;;;;;11.65;9.13;;;;;17.60;100441.00;;;;5091684;28;20205;-77
2022/10/15 04:56:01;;;;;;;13.13;10.25;;;;;17.60;100441.00;;;;5086709;28;20195;-77
2022/10/15 04:58:30;;;;;;;12.95;9.40;;;;;17.60;100438.00;;;;5082354;28;20199;-77
2022/10/15 05:01:01;;;;;;;9.85;8.40;;;;;17.60;100434.00;;;;5084289;28;20244;-77
2022/10/15 05:03:30;;;;;;;13.27;9.73;;;;;17.60;100430.00;;;;5077714;28;20279;-77
2022/10/15 05:06:01;;;;;;;13.20;9.25;;;;;17.60;100431.00;;;;5091413;28;20194;-77
2022/10/15 05:08:29;;;;;;;11.93;9.88;;;;;17.70;100437.00;;;;5089561;28;20253;-77
2022/10/15 05:10:59;;;;;;;14.30;10.73;;;;;17.70;100436.00;;;;5088713;28;20202;-77
2022/10/15 05:13:27;;;;;;;14.23;10.88;;;;;17.70;100434.00;;;;5071071;28;20665;-77
2022/10/15 05:15:54;;;;;;;13.30;10.70;;;;;17.70;100428.00;;;;5086589;28;20195;-77
2022/10/15 05:18:21;;;;;;;14.13;11.85;;;;;17.80;100431.00;;;;5089716;28;20695;-77
2022/10/15 05:20:50;;;;;;;13.48;10.10;;;;;17.80;100440.00;;;;5079944;28;20225;-77
2022/10/15 05:23:17;;;;;;;14.60;10.65;;;;;17.80;100439.00;;;;5089829;28;20657;-77
2022/10/15 05:25:44;;;;;;;17.27;12.82;;;;;17.80;100438.00;;;;5090919;28;20202;-77
2022/10/15 05:28:11;;;;;;;23.88;15.90;;;;;17.80;100437.00;;;;5090253;28;20401;-77
2022/10/15 05:30:39;;;;;;;18.67;13.45;;;;;17.80;100435.00;;;;5082731;28;20227;-76
2022/10/15 05:33:06;;;;;;;20.70;14.48;;;;;17.90;100438.00;;;;5073397;28;20202;-77
2022/10/15 05:35:33;;;;;;;21.02;14.65;;;;;17.90;100437.00;;;;5071080;28;20575;-77
2022/10/15 05:38:03;;;;;;;22.00;14.65;;;;;17.90;100436.00;;;;5090891;28;20735;-77
2022/10/15 05:40:30;;;;;;;20.35;14.05;;;;;18.00;100440.00;;;;5089336;28;20194;-77
2022/10/15 05:42:58;;;;;;;20.60;15.48;;;;;18.00;100434.00;;;;5088861;28;20194;-77
2022/10/15 05:45:25;;;;;;;21.92;15.05;;;;;18.00;100429.00;;;;5086039;28;20230;-77
2022/10/15 05:47:54;;;;;;;22.52;15.80;;;;;18.00;100430.00;;;;5086605;28;20581;-77
2022/10/15 05:50:22;;;;;;;28.65;14.75;;;;;18.10;100419.00;;;;5088249;28;20216;-77
2022/10/15 05:52:49;;;;;;;23.52;15.23;;;;;18.10;100435.00;;;;5088473;28;20742;-77
2022/10/15 05:55:18;;;;;;;21.33;14.38;;;;;18.10;100435.00;;;;5087011;28;20206;-77
2022/10/15 05:57:45;;;;;;;23.58;15.50;;;;;18.20;100426.00;;;;5088386;28;20594;-77
2022/10/15 06:00:14;;;;;;;24.73;15.27;;;;;18.20;100433.00;;;;5088208;28;20195;-77
2022/10/15 06:02:41;;;;;;;20.67;13.45;;;;;18.20;100428.00;;;;5090105;28;20202;-77
2022/10/15 06:05:08;;;;;;;24.35;15.50;;;;;18.20;100423.00;;;;5089462;28;20206;-77
2022/10/15 06:07:36;;;;;;;23.95;14.48;;;;;18.30;100427.00;;;;5073330;28;20210;-77
2022/10/15 06:10:03;;;;;;;24.38;15.85;;;;;18.30;100422.00;;;;5080164;28;20695;-77
2022/10/15 06:12:32;;;;;;;24.42;14.95;;;;;18.30;100421.00;;;;5085062;28;20241;-77
2022/10/15 06:14:59;;;;;;;24.00;14.43;;;;;18.40;100420.00;;;;5079161;28;20203;-77
2022/10/15 06:17:26;;;;;;;21.52;13.63;;;;;18.40;100421.00;;;;5072722;28;20194;-77
2022/10/15 06:19:54;;;;;;;22.63;14.77;;;;;18.40;100421.00;;;;5078178;28;20206;-77
2022/10/15 06:22:21;;;;;;;28.23;16.05;;;;;18.40;100428.00;;;;5086464;28;20210;-77
2022/10/15 06:24:48;;;;;;;20.52;13.05;;;;;18.50;100433.00;;;;5079112;28;20888;-77
2022/10/15 06:27:15;;;;;;;23.55;15.57;;;;;18.50;100430.00;;;;5074671;28;20205;-77
2022/10/15 06:29:44;;;;;;;23.35;13.10;;;;;18.50;100433.00;;;;5079909;28;20636;-77
2022/10/15 06:32:12;;;;;;;22.88;15.27;;;;;18.50;100429.00;;;;5076380;28;20213;-77
2022/10/15 06:34:39;;;;;;;23.63;15.40;;;;;18.60;100437.00;;;;5088359;28;20225;-77
2022/10/15 06:37:06;;;;;;;23.35;14.63;;;;;18.60;100436.00;;;;5087921;28;20198;-77
2022/10/15 06:39:34;;;;;;;24.75;15.25;;;;;18.60;100425.00;;;;5089296;28;20194;-77
2022/10/15 06:42:01;;;;;;;22.83;14.55;;;;;18.60;100435.00;;;;5075521;28;20195;-77
2022/10/15 06:44:28;;;;;;;21.83;14.25;;;;;18.60;100430.00;;;;5083599;28;20202;-77
2022/10/15 06:46:57;;;;;;;22.20;14.38;;;;;18.70;100426.00;;;;5088979;28;20198;-77
2022/10/15 06:49:25;;;;;;;20.85;12.68;;;;;18.70;100432.00;;;;5081330;28;20699;-78
2022/10/15 06:51:52;;;;;;;19.08;13.02;;;;;18.70;100430.00;;;;5078930;28;20205;-79
2022/10/15 06:54:19;;;;;;;19.25;13.23;;;;;18.70;100425.00;;;;5086717;28;20201;-78
2022/10/15 06:56:46;;;;;;;21.88;13.10;;;;;18.80;100433.00;;;;5084808;28;20202;-79
2022/10/15 06:59:14;;;;;;;18.55;12.75;;;;;18.80;100438.00;;;;5069791;28;20199;-79
2022/10/15 07:01:41;;;;;;;16.77;11.93;;;;;18.80;100426.00;;;;5076278;28;20214;-77
2022/10/15 07:04:10;;;;;;;22.20;14.25;;;;;18.80;100427.00;;;;5085402;28;20209;-77
2022/10/15 07:06:37;;;;;;;18.70;12.57;;;;;18.90;100426.00;;;;5087487;28;20198;-77
2022/10/15 07:09:05;;;;;;;18.70;12.85;;;;;18.90;100440.00;;;;5076093;28;20215;-77
2022/10/15 07:11:33;;;;;;;17.40;11.05;;;;;19.00;100438.00;;;;5058169;28;20698;-78
2022/10/15 07:14:00;;;;;;;16.02;11.73;;;;;19.00;100436.00;;;;5072975;28;20195;-78
2022/10/15 07:16:27;;;;;;;17.60;12.57;;;;;19.00;100439.00;;;;5076670;28;20203;-76
2022/10/15 07:18:54;;;;;;;16.63;11.65;;;;;19.00;100444.00;;;;5076411;28;20195;-77
2022/10/15 07:21:23;;;;;;;17.42;12.27;;;;;19.00;100447.00;;;;5078575;28;20675;-77
2022/10/15 07:23:50;;;;;;;15.70;11.32;;;;;19.00;100443.00;;;;5080083;28;20221;-77
2022/10/15 07:26:18;;;;;;;15.85;10.68;;;;;19.10;100443.00;;;;5074714;28;20657;-80
2022/10/15 07:28:45;;;;;;;15.23;10.80;;;;;19.10;100449.00;;;;5074387;28;20218;-77
2022/10/15 07:31:12;;;;;;;13.15;9.80;;;;;19.10;100443.00;;;;5075172;28;20190;-77
2022/10/15 07:33:42;;;;;;;14.60;10.35;;;;;19.10;100431.00;;;;5077456;28;20210;-77
2022/10/15 07:36:12;;;;;;;14.02;10.00;;;;;19.10;100424.00;;;;5080050;28;20289;-77
2022/10/15 07:38:41;;;;;;;13.43;10.27;;;;;19.10;100432.00;;;;5075404;28;20244;-77
2022/10/15 07:41:10;;;;;;;18.65;10.85;;;;;19.20;100429.00;;;;5072511;28;20701;-77
2022/10/15 07:43:38;;;;;;;13.77;10.00;;;;;19.20;100425.00;;;;5069519;28;20225;-77
2022/10/15 07:46:06;;;;;;;12.43;9.15;;;;;19.20;100432.00;;;;5066867;28;20215;-77
2022/10/15 07:48:33;;;;;;;14.05;9.70;;;;;19.20;100428.00;;;;5080778;28;20247;-77
2022/10/15 07:51:03;;;;;;;11.30;9.13;;;;;19.30;100428.00;;;;5078433;28;20198;-76
2022/10/15 07:53:31;;;;;;;13.52;9.80;;;;;19.30;100429.00;;;;5078370;28;20233;-77
2022/10/15 07:56:01;;;;;;;12.18;8.55;;;;;19.30;100418.00;;;;5075072;28;20198;-77
2022/10/15 07:58:29;;;;;;;11.10;8.88;;;;;19.40;100421.00;;;;5071098;28;20199;-77
2022/10/15 08:00:59;;;;;;;9.52;7.47;;;;;19.40;100417.00;;;;5088069;28;20203;-77
2022/10/15 08:03:26;;;;;;;10.25;7.97;;;;;19.40;100418.00;;;;5080540;28;20216;-77
2022/10/15 08:05:54;;;;;;;10.57;8.23;;;;;19.40;100403.00;;;;5075135;28;20210;-77
2022/10/15 08:08:22;;;;;;;10.75;7.55;;;;;19.50;100408.00;;;;5079683;28;20194;-78
2022/10/15 08:10:49;;;;;;;9.48;7.13;;;;;19.50;100407.00;;;;5077581;28;20206;-78
2022/10/15 08:13:18;;;;;;;7.22;6.25;;;;;19.50;100411.00;;;;5085822;28;20594;-78
2022/10/15 08:15:45;;;;;;;8.43;6.45;;;;;19.50;100417.00;;;;5091600;28;20213;-78
2022/10/15 08:18:12;;;;;;;8.68;6.28;;;;;19.50;100398.00;;;;5084714;28;20210;-78
2022/10/15 08:20:41;;;;;;;9.95;7.07;;;;;19.60;100392.00;;;;5074879;28;20202;-78
2022/10/15 08:23:15;;;;;;;9.25;6.47;;;;;19.50;100388.00;;;;5078087;28;20203;-78
2022/10/15 08:25:42;;;;;;;7.50;6.63;;;;;19.60;100393.00;;;;5087541;28;20202;-77
2022/10/15 08:28:09;;;;;;;9.82;6.63;;;;;19.60;100385.00;;;;5086540;28;20198;-77
2022/10/15 08:30:38;;;;;;;9.48;6.90;;;;;19.70;100393.00;;;;5088913;28;20229;-77
2022/10/15 08:33:05;;;;;;;9.63;6.28;;;;;19.70;100388.00;;;;5088770;28;20198;-77
2022/10/15 08:35:34;;;;;;;12.60;6.90;;;;;19.80;100390.00;;;;5089054;28;20198;-77
2022/10/15 08:38:01;;;;;;;8.90;6.78;;;;;19.90;100385.00;;;;5087947;28;20289;-77
2022/10/15 08:40:29;;;;;;;7.97;6.20;;;;;19.90;100386.00;;;;5092162;28;20190;-77
2022/10/15 08:42:57;;;;;;;10.07;6.88;;;;;20.00;100380.00;;;;5071355;28;20684;-77
2022/10/15 08:45:28;;;;;;;7.85;6.13;;;;;20.00;100386.00;;;;5077622;28;20676;-77
2022/10/15 08:48:02;;;;;;;8.80;6.60;;;;;20.00;100382.00;;;;5081010;28;20209;-77
2022/10/15 08:50:38;;;;;;;8.50;6.15;;;;;20.10;100383.00;;;;5076424;28;20252;-77
2022/10/15 08:53:05;;;;;;;8.27;6.00;;;;;20.20;100383.00;;;;5088859;28;20198;-76
2022/10/15 08:55:38;;;;;;;8.88;7.10;;;;;20.20;100378.00;;;;5071306;28;20683;-76
2022/10/15 08:58:12;;;;;;;6.32;5.30;;;;;20.20;100375.00;;;;5070715;28;20203;-76
2022/10/15 09:00:44;;;;;;;7.25;5.88;;;;;20.20;100373.00;;;;5081164;28;20583;-76
2022/10/15 09:03:24;;;;;;;8.75;6.18;;;;;20.20;100368.00;;;;5080166;28;20221;-76
2022/10/15 09:05:57;;;;;;;6.75;6.00;;;;;20.30;100376.00;;;;5080793;28;20195;-76
2022/10/15 09:08:30;;;;;;;7.68;5.88;;;;;20.20;100376.00;;;;5090573;28;20213;-76
2022/10/15 09:11:03;;;;;;;7.28;5.13;;;;;20.30;100378.00;;;;5087195;28;20217;-76
2022/10/15 09:13:33;;;;;;;8.23;5.95;;;;;20.30;100374.00;;;;5079653;28;20696;-76
2022/10/15 09:16:05;;;;;;;10.80;6.47;;;;;20.30;100366.00;;;;5077386;28;20191;-76
2022/10/15 09:18:35;;;;;;;10.55;6.72;;;;;20.40;100354.00;;;;5078644;28;20198;-76
2022/10/15 09:21:05;;;;;;;7.68;6.25;;;;;20.40;100351.00;;;;5078513;28;20218;-76
2022/10/15 09:23:33;;;;;;;11.23;6.90;;;;;20.50;100358.00;;;;5078790;28;20286;-76
2022/10/15 09:26:06;;;;;;;8.70;6.75;;;;;20.50;100345.00;;;;5078421;28;20205;-76
2022/10/15 09:28:41;;;;;;;7.30;5.80;;;;;20.50;100351.00;;;;5078073;28;20186;-74
2022/10/15 09:31:12;;;;;;;6.63;5.57;;;;;20.60;100354.00;;;;5077717;28;20209;-74
2022/10/15 09:33:46;;;;;;;8.23;5.95;;;;;20.60;100347.00;;;;5075693;28;20202;-77
2022/10/15 09:36:33;;;;;;;7.07;6.38;;;;;20.60;100337.00;;;;5078997;28;20198;-74
2022/10/15 09:39:11;;;;;;;7.57;6.28;;;;;20.70;100332.00;;;;5079179;28;20205;-74
2022/10/15 09:41:52;;;;;;;8.05;5.93;;;;;20.70;100330.00;;;;5080887;28;20194;-74
2022/10/15 09:44:21;;;;;;;8.40;6.07;;;;;20.80;100332.00;;;;5079821;28;20732;-74
2022/10/15 09:46:51;;;;;;;7.72;5.57;;;;;20.80;100331.00;;;;5083080;28;20201;-75
2022/10/15 09:49:24;;;;;;;6.65;5.35;;;;;20.90;100339.00;;;;5072348;28;20723;-74
2022/10/15 09:51:59;;;;;;;7.63;6.05;;;;;20.90;100342.00;;;;5080338;28;20579;-75
2022/10/15 09:54:36;;;;;;;8.75;5.55;;;;;20.90;100342.00;;;;5076872;28;20205;-75
2022/10/15 09:57:03;;;;;;;6.38;5.07;;;;;21.00;100325.00;;;;5075345;28;20198;-76
2022/10/15 09:59:31;;;;;;;6.20;4.53;;;;;21.00;100334.00;;;;5077196;28;20209;-75
2022/10/15 10:02:00;;;;;;;7.22;5.43;;;;;21.00;100324.00;;;;5076290;28;20190;-76
2022/10/15 10:04:30;;;;;;;5.68;4.35;;;;;21.00;100319.00;;;;5086620;28;20213;-76
2022/10/15 10:07:00;;;;;;;6.45;4.22;;;;;21.00;100310.00;;;;5087778;28;20197;-77
2022/10/15 10:09:32;;;;;;;5.20;4.13;;;;;21.00;100315.00;;;;5085166;28;20223;-76
2022/10/15 10:12:01;;;;;;;5.38;4.13;;;;;21.00;100315.00;;;;5080214;28;20195;-76
2022/10/15 10:14:31;;;;;;;5.95;4.05;;;;;21.00;100311.00;;;;5075155;28;20198;-77
2022/10/15 10:17:08;;;;;;;5.30;3.97;;;;;20.90;100314.00;;;;5074483;28;20190;-77
2022/10/15 10:19:37;;;;;;;4.97;3.83;;;;;21.00;100315.00;;;;5075589;28;20194;-77
2022/10/15 10:22:15;;;;;;;6.60;4.18;;;;;20.90;100307.00;;;;5082672;28;20221;-76
2022/10/15 10:24:42;;;;;;;4.88;3.92;;;;;21.00;100305.00;;;;5086988;28;20560;-76
2022/10/15 10:27:24;;;;;;;5.20;3.67;;;;;20.90;100308.00;;;;5086210;28;20195;-77
2022/10/15 10:29:56;;;;;;;4.25;3.38;;;;;20.90;100303.00;;;;5074777;28;20241;-76
2022/10/15 10:32:27;;;;;;;4.75;3.47;;;;;21.00;100309.00;;;;5085565;28;20209;-77
2022/10/15 10:34:56;;;;;;;3.70;3.05;;;;;20.90;100299.00;;;;5080766;28;20202;-77
2022/10/15 10:37:24;;;;;;;4.93;3.42;;;;;21.00;100298.00;;;;5076538;28;20210;-77
2022/10/15 10:39:56;;;;;;;4.85;3.00;;;;;20.90;100299.00;;;;5073306;28;20243;-77
2022/10/15 10:42:32;;;;;;;4.25;3.35;;;;;20.90;100294.00;;;;5056701;28;21068;-77
2022/10/15 10:45:18;;;;;;;4.45;3.17;;;;;20.80;100295.00;;;;5078797;28;20218;-77
2022/10/15 10:47:45;;;;;;;4.22;3.25;;;;;20.90;100307.00;;;;5073030;28;20201;-77
2022/10/15 10:50:30;;;;;;;4.03;3.00;;;;;20.80;100307.00;;;;5078101;28;20223;-78
2022/10/15 10:52:58;;;;;;;4.90;3.80;;;;;20.90;100299.00;;;;5074337;28;20222;-78
2022/10/15 10:55:34;;;;;;;4.10;3.50;;;;;20.80;100301.00;;;;5071146;28;20202;-76
2022/10/15 10:58:04;;;;;;;3.65;3.20;;;;;20.90;100300.00;;;;5073779;28;20237;-76
2022/10/15 11:00:38;;;;;;;5.60;3.85;;;;;20.80;100297.00;;;;5071290;28;20206;-76
2022/10/15 11:03:07;;;;;;;4.40;3.13;;;;;20.90;100297.00;;;;5074224;28;20198;-77
2022/10/15 11:05:40;;;;;;;4.13;3.22;;;;;20.80;100292.00;;;;5081505;28;20256;-77
2022/10/15 11:08:20;;;;;;;3.33;2.63;;;;;20.80;100293.00;;;;5076975;28;20209;-77
2022/10/15 11:10:54;;;;;;;2.90;2.47;;;;;20.80;100291.00;;;;5070595;28;20224;-77
2022/10/15 11:13:43;;;;;;;4.32;3.20;;;;;20.70;100290.00;;;;5073392;28;20210;-76
2022/10/15 11:16:21;;;;;;;3.35;2.72;;;;;20.80;100288.00;;;;5076821;28;20202;-76
2022/10/15 11:19:03;;;;;;;2.90;2.20;;;;;20.70;100276.00;;;;5076199;28;20198;-77
2022/10/15 11:21:49;;;;;;;5.95;2.67;;;;;20.70;100269.00;;;;5077848;28;20638;-76
2022/10/15 11:24:20;;;;;;;3.08;2.28;;;;;20.90;100268.00;;;;5074672;28;20214;-77
2022/10/15 11:26:59;;;;;;;3.53;2.33;;;;;20.80;100268.00;;;;5067719;28;20187;-77
2022/10/15 11:29:34;;;;;;;4.00;2.75;;;;;20.80;100269.00;;;;5078234;28;20221;-77
2022/10/15 11:32:16;;;;;;;2.20;1.98;;;;;20.80;100268.00;;;;5075072;28;20681;-77
2022/10/15 11:35:00;;;;;;;3.20;2.22;;;;;20.80;100266.00;;;;5076745;28;20195;-77
2022/10/15 11:37:41;;;;;;;2.55;2.20;;;;;20.80;100274.00;;;;5071050;28;20202;-76
2022/10/15 11:40:21;;;;;;;2.75;2.05;;;;;20.80;100273.00;;;;5071830;28;20199;-77
2022/10/15 11:42:56;;;;;;;2.53;2.17;;;;;20.90;100271.00;;;;5079539;28;20203;-76
2022/10/15 11:45:52;;;;;;;2.72;2.00;;;;;20.80;100259.00;;;;5070466;28;20221;-77
2022/10/15 11:48:28;;;;;;;2.50;2.20;;;;;20.90;100270.00;;;;5071318;28;20583;-77
2022/10/15 11:51:02;;;;;;;4.13;2.00;;;;;20.90;100261.00;;;;5070269;28;20225;-78
2022/10/15 11:53:56;;;;;;;2.25;1.88;;;;;20.90;100266.00;;;;5072865;28;20197;-78
2022/10/15 11:56:28;;;;;;;3.58;2.17;;;;;21.00;100262.00;;;;5084560;28;20237;-77
2022/10/15 11:58:58;;;;;;;2.10;1.90;;;;;21.00;100258.00;;;;5085008;28;20210;-77
2022/10/15 12:01:33;;;;;;;2.70;1.50;;;;;21.00;100259.00;;;;5086396;28;20202;-77
2022/10/15 12:04:05;;;;;;;2.63;1.77;;;;;21.00;100258.00;;;;5081417;28;20190;-77
2022/10/15 12:06:36;;;;;;;2.22;1.92;;;;;21.00;100261.00;;;;5086721;28;20205;-77
2022/10/15 12:09:06;;;;;;;1.55;1.45;;;;;21.10;100263.00;;;;5075730;28;20218;-78
2022/10/15 12:11:45;;;;;;;2.42;2.08;;;;;21.00;100257.00;;;;5067593;28;20215;-78
2022/10/15 12:14:22;;;;;;;2.88;1.80;;;;;21.10;100255.00;;;;5078485;28;20793;-78